Relevés horaires Matro (Suisse)


Relevés horaires à Matro - Dimanche 17 Juill. 2022
Heure UTC1 Température [°C] Vent [km/h] Hum. [%] Pres.4 [hPa] Visi. [Km] Nébu. [octa] Préc.5 [mm] Cond.
2m. Res. Ros. Dir.2 Vit. Moy. Raf.3
23:00 13.6 13.6 10.8 NO 5.6 -- 9.3 83 850(0.4/3h) -- -- -- --
22:00 14.0 13.5 11.0 N 9.3 -- 13.0 82 850(0.9/3h) -- -- -- --
21:00 14.7 14.3 10.2 ONO 9.3 -- 20.4 74 850(0.8/3h) -- -- -- --
20:00 14.6 14.5 11.0 O 7.4 -- 13.0 79 850(1.0/3h) -- -- -- --
19:00 15.6 15.4 9.9 NO 9.3 -- 20.4 69 850(0.4/3h) -- -- -- --
18:00 16.8 16.6 7.6 NO 11.1 -- 20.4 55 850(0.0/3h) -- -- -- --
17:00 17.8 17.8 7.5 NO 11.1 -- 18.5 51 850(-0.6/3h) -- -- -- --
16:00 18.1 18.1 9.7 SSO 7.4 -- 20.4 58 850(-0.5/3h) -- -- -- --
15:00 18.0 18.0 10.0 SE 5.6 -- 20.4 59 850(-0.2/3h) -- -- -- --
14:00 17.6 17.6 10.5 S 5.6 -- 18.5 63 850(-0.1/3h) -- -- -- --
13:00 16.0 16.0 10.5 SO 3.7 -- 16.7 70 850(0.1/3h) -- -- -- --
12:00 15.8 15.8 11.6 OSO 3.7 -- 27.8 76 850(0.2/3h) -- -- -- --
11:00 14.7 14.7 10.7 SE 5.6 -- 13.0 77 850(0.7/3h) -- -- -- --
10:00 13.6 13.6 10.9 SE 5.6 -- 22.2 84 850(1.1/3h) -- -- -- --
09:00 13.0 11.8 10.0 S 13.0 -- 27.8 82 850(1.1/3h) -- -- -- --
08:00 12.9 11.7 8.6 SSE 13.0 -- 20.4 75 850(1.0/3h) -- -- -- --
07:00 12.4 10.4 6.2 S 20.4 -- 27.8 66 850(0.7/3h) -- -- -- --
06:00 13.2 12.1 3.7 SSE 13.0 -- 24.1 52 850(0.6/3h) -- -- -- --
05:00 14.1 14.1 1.5 S 5.6 -- 5.6 42 850(0.2/3h) -- -- -- --
04:00 14.5 14.5 -0.4 SO 3.7 -- 7.4 36 850(-0.1/3h) -- -- -- --
03:00 14.0 13.8 0.4 NO 7.4 -- 24.1 39 850(-0.1/3h) -- -- -- --
02:00 14.2 14 0.5 ONO 7.4 -- 18.5 39 850(0.1/3h) -- -- -- --
01:00 13.9 12.6 1.8 NO 16.7 -- 24.1 44 850(0.2/3h) -- -- -- --
00:00 13.7 12.2 2.8 NNO 18.5 -- 48.2 48 850(0.6/3h) -- -- -- --

1 Coordinated Universal Time. Actuellement il est 22:00 locale et 20:00 UTC.

2 Le vent souffle depuis la direction indiquée vers la direction oposée.

3 Les rafales max. sont disponible 40 min après l'heure du relevé.

4 Pour les stations d'altitude (plus de 600m) le géopotentiel du niveau le plus proche de la pression obligatoire est indiqué.

5 Les stations disposant d'un diffuseur peuvent indiquer "trace". Cela signifie que des précipitations ont touchés le sol mais que la quantité est inférieure à 0.1 mm.

Copyright

Les données affichées sur cette page sont la propriété exclusive de Météo Suisse.

Récapitulatif de la journée
Température [°C] Vent [km/h] Ensoleillement4 [h] Precipitations totale5 [mm] Pression [Hpa]
Min1 Max.2 Moy.3 Max. Min Max.
13.5 18.8 0 48.2 11 h 24 min 0 850.0 850.0

1 Température minimale relevée entre 18:00 UTC la veille et 18:00 UTC le jour donné.

2 Température maximale relevée entre 06:00 UTC le jour donné et 06:00 UTC le lendemain.

3 Vent moyen de la journée basé sur les relevés horaires.

4 Ensoleillement en heures relevé entre 06:00 UTC la veille et 06:00 UTC le jour donné.

5 Précipitations totales tombées entre 06:00 UTC la jour donné et 06:00 UTC le lendemain.

Graphiques horaires